Time;durP1;ratioP1;P1;durP2;ratioP2;P2;SDS_P1;SDS_P2;PMS_P1;PMS_P2;Temp;Humidity;BMP_temperature;BMP_pressure;BME280_temperature;BME280_humidity;BME280_pressure;Samples;Min_cycle;Max_cycle;Signal;HPM_P1;HPM_P2
2022/07/07 00:01:50;;;;;;;25.98;20.08;;;;;;;21.39;79.04;99830.34;5047406;28;20036;-29
2022/07/07 00:04:15;;;;;;;26.00;20.10;;;;;;;21.27;79.08;99833.50;5047502;28;20040;-30
2022/07/07 00:06:40;;;;;;;27.73;21.33;;;;;;;21.17;79.47;99816.59;5047282;28;20036;-29
2022/07/07 00:09:06;;;;;;;33.95;24.08;;;;;;;21.45;79.10;99833.78;5046831;28;20036;-33
2022/07/07 00:11:32;;;;;;;34.42;25.52;;;;;;;21.26;78.35;99825.66;5047191;28;20029;-31
2022/07/07 00:13:57;;;;;;;29.08;23.10;;;;;;;21.19;78.61;99834.16;5047213;28;20025;-29
2022/07/07 00:16:23;;;;;;;30.25;24.02;;;;;;;20.79;80.62;99830.94;5047152;28;20068;-29
2022/07/07 00:18:49;;;;;;;28.95;23.98;;;;;;;20.74;81.79;99831.03;5047229;28;20029;-29
2022/07/07 00:21:15;;;;;;;28.60;22.83;;;;;;;20.66;81.74;99826.28;5062562;28;20037;-38
2022/07/07 00:23:40;;;;;;;28.80;21.50;;;;;;;20.63;81.57;99824.13;5047009;28;20130;-29
2022/07/07 00:26:06;;;;;;;26.77;21.23;;;;;;;20.56;82.34;99826.38;5045636;28;20083;-30
2022/07/07 00:28:32;;;;;;;26.30;20.52;;;;;;;20.42;82.34;99808.13;5047200;28;20032;-31
2022/07/07 00:30:57;;;;;;;26.67;21.02;;;;;;;20.50;82.79;99819.41;5062296;28;20033;-29
2022/07/07 00:33:23;;;;;;;24.50;20.75;;;;;;;20.35;82.65;99812.28;5047088;28;20025;-29
2022/07/07 00:35:49;;;;;;;23.45;20.75;;;;;;;20.28;83.72;99823.47;5047295;28;20025;-30
2022/07/07 00:38:15;;;;;;;24.15;20.35;;;;;;;20.29;83.16;99803.44;5047743;28;20412;-30
2022/07/07 00:40:40;;;;;;;28.25;19.10;;;;;;;20.42;81.83;99808.13;5067781;28;20074;-32
2022/07/07 00:43:05;;;;;;;23.10;19.45;;;;;;;20.39;82.02;99811.41;5067028;28;20440;-29
2022/07/07 00:45:31;;;;;;;22.15;19.25;;;;;;;20.44;82.13;99794.28;5073878;28;20489;-28
2022/07/07 00:47:58;;;;;;;26.17;19.40;;;;;;;20.70;80.88;99805.63;5067200;28;20028;-30
2022/07/07 00:50:24;;;;;;;21.93;19.17;;;;;;;20.55;81.31;99812.00;5067195;28;20024;-28
2022/07/07 00:52:50;;;;;;;22.70;18.58;;;;;;;20.37;82.87;99796.53;5065775;28;20101;-29
2022/07/07 00:55:16;;;;;;;24.13;19.17;;;;;;;20.67;81.60;99812.41;5067097;28;20024;-36
2022/07/07 00:57:41;;;;;;;23.10;19.20;;;;;;;20.62;81.02;99800.88;5064768;28;20544;-31
2022/07/07 01:00:10;;;;;;;25.80;19.73;;;;;;;20.58;80.83;99810.63;5065314;28;20107;-29
2022/07/07 01:02:36;;;;;;;23.30;19.05;;;;;;;20.48;81.41;99796.13;5066987;28;20040;-31
2022/07/07 01:05:05;;;;;;;23.00;19.10;;;;;;;20.48;81.72;99812.38;5067331;28;20055;-29
2022/07/07 01:07:32;;;;;;;22.30;18.98;;;;;;;20.25;82.36;99788.84;5065024;28;20067;-29
2022/07/07 01:09:58;;;;;;;21.38;18.77;;;;;;;20.22;82.22;99787.50;5068345;28;20017;-29
2022/07/07 01:12:24;;;;;;;22.30;18.38;;;;;;;20.39;81.97;99808.72;5069401;28;20025;-29
2022/07/07 01:14:49;;;;;;;23.42;18.95;;;;;;;20.34;81.94;99799.84;5071062;28;20452;-29
2022/07/07 01:17:15;;;;;;;24.75;20.23;;;;;;;20.36;81.87;99798.44;5070848;28;20071;-31
2022/07/07 01:19:40;;;;;;;23.50;19.98;;;;;;;20.53;80.53;99802.56;5070751;28;20046;-29
2022/07/07 01:22:11;;;;;;;23.00;19.25;;;;;;;20.43;80.72;99796.19;5070335;28;20112;-32
2022/07/07 01:24:37;;;;;;;24.40;19.42;;;;;;;20.25;82.02;99805.91;5068575;28;20016;-28
2022/07/07 01:27:09;;;;;;;24.48;18.17;;;;;;;20.18;81.90;99804.63;5070244;28;20033;-34
2022/07/07 01:29:37;;;;;;;24.35;19.08;;;;;;;20.33;81.51;99817.16;5070356;28;20032;-29
2022/07/07 01:32:04;;;;;;;21.25;18.42;;;;;;;20.27;81.57;99806.41;5069054;28;20037;-29
2022/07/07 01:34:30;;;;;;;29.92;18.70;;;;;;;20.11;82.47;99805.00;5070295;28;20102;-28
2022/07/07 01:36:55;;;;;;;22.15;17.70;;;;;;;20.18;82.08;99802.72;5068880;28;20037;-29
2022/07/07 01:39:20;;;;;;;22.38;19.02;;;;;;;19.99;83.51;99805.38;5069874;28;20039;-29
2022/07/07 01:41:46;;;;;;;22.02;19.48;;;;;;;19.88;83.55;99793.06;5085078;28;20056;-29
2022/07/07 01:44:11;;;;;;;24.38;18.83;;;;;;;20.16;82.05;99810.34;5090840;28;20031;-30
2022/07/07 01:46:37;;;;;;;23.92;18.60;;;;;;;19.88;82.96;99793.06;5090636;28;20055;-33
2022/07/07 01:49:02;;;;;;;22.45;18.67;;;;;;;19.85;83.86;99799.03;5090582;28;20071;-30
2022/07/07 01:51:28;;;;;;;21.55;18.02;;;;;;;19.95;81.99;99798.94;5090057;28;20114;-29
2022/07/07 01:53:53;;;;;;;21.35;17.92;;;;;;;19.98;82.68;99820.03;5090404;28;20050;-31
2022/07/07 01:56:19;;;;;;;21.77;17.80;;;;;;;20.05;82.41;99814.25;5090088;28;20115;-32
2022/07/07 01:58:44;;;;;;;24.15;18.23;;;;;;;20.12;80.89;99820.13;5071904;28;20419;-28
2022/07/07 02:01:10;;;;;;;24.80;20.25;;;;;;;20.15;80.18;99816.06;5090280;28;20492;-29
2022/07/07 02:03:35;;;;;;;27.95;21.30;;;;;;;19.87;81.11;99810.38;5090250;28;20024;-29
2022/07/07 02:06:01;;;;;;;24.83;19.70;;;;;;;19.63;82.65;99808.41;5090204;28;20036;-31
2022/07/07 02:08:26;;;;;;;21.67;18.35;;;;;;;19.35;83.57;99818.16;5090189;28;20028;-29
2022/07/07 02:13:35;;;;;;;20.52;16.88;;;;;;;19.16;83.62;99822.63;5090100;28;20035;-30
2022/07/07 02:16:01;;;;;;;21.88;17.40;;;;;;;19.15;84.11;99812.91;5071919;28;20028;-30
2022/07/07 02:18:28;;;;;;;22.05;18.23;;;;;;;19.22;83.34;99814.19;5089837;28;20082;-31
2022/07/07 02:20:53;;;;;;;20.42;16.77;;;;;;;19.04;84.10;99818.41;5070925;28;20032;-32
2022/07/07 02:23:18;;;;;;;21.15;17.35;;;;;;;18.63;85.62;99807.81;5089305;28;20096;-31
2022/07/07 02:25:44;;;;;;;23.48;16.60;;;;;;;18.80;85.16;99826.38;5089731;28;20093;-31
2022/07/07 02:28:09;;;;;;;21.85;18.38;;;;;;;18.73;85.61;99833.94;5089617;28;20077;-32
2022/07/07 02:30:35;;;;;;;21.02;17.42;;;;;;;18.62;86.59;99827.00;5089750;28;20431;-31
2022/07/07 02:33:00;;;;;;;24.27;17.40;;;;;;;18.45;86.51;99827.34;5089407;28;20024;-28
2022/07/07 02:35:25;;;;;;;23.02;18.08;;;;;;;18.48;86.58;99822.19;5088775;28;20114;-28
2022/07/07 02:37:51;;;;;;;21.90;18.92;;;;;;;18.56;87.09;99839.69;5089196;28;20032;-31
2022/07/07 02:40:16;;;;;;;23.95;19.80;;;;;;;18.55;86.73;99827.31;5089267;28;20415;-29
2022/07/07 02:42:42;;;;;;;24.08;19.80;;;;;;;18.40;86.75;99809.25;5071252;28;20055;-33
2022/07/07 02:45:07;;;;;;;24.45;19.20;;;;;;;18.42;87.25;99823.28;5089341;28;20024;-28
2022/07/07 02:47:33;;;;;;;29.20;20.92;;;;;;;18.84;85.75;99819.31;5088948;28;20111;-34
2022/07/07 02:49:58;;;;;;;25.35;19.58;;;;;;;19.16;84.34;99853.16;5070828;28;20393;-30
2022/07/07 02:52:24;;;;;;;23.85;20.63;;;;;;;19.14;84.28;99843.72;5088913;28;20039;-32
2022/07/07 02:54:49;;;;;;;23.45;19.23;;;;;;;19.13;84.21;99832.09;5070987;28;20137;-37
2022/07/07 02:57:15;;;;;;;27.40;21.17;;;;;;;19.22;83.03;99818.78;5089285;28;20028;-32
2022/07/07 02:59:40;;;;;;;26.08;20.33;;;;;;;19.18;82.92;99833.97;5087512;28;20036;-30
2022/07/07 03:02:05;;;;;;;24.35;20.52;;;;;;;19.15;82.71;99819.13;5087558;28;20553;-30
2022/07/07 03:04:31;;;;;;;29.20;20.20;;;;;;;19.31;83.02;99821.69;5089027;28;20758;-31
2022/07/07 03:06:56;;;;;;;24.13;20.40;;;;;;;19.26;82.63;99836.06;5088660;28;20020;-29
2022/07/07 03:09:22;;;;;;;25.33;21.73;;;;;;;19.19;82.22;99825.56;5088736;28;20409;-31
2022/07/07 03:11:47;;;;;;;27.77;20.58;;;;;;;19.41;81.60;99827.00;5088853;28;20028;-29
2022/07/07 03:14:13;;;;;;;25.73;20.45;;;;;;;19.37;82.19;99832.19;5088164;28;20070;-29
2022/07/07 03:16:38;;;;;;;23.15;19.58;;;;;;;19.38;83.03;99814.06;5088771;28;20106;-29
2022/07/07 03:19:04;;;;;;;24.17;20.20;;;;;;;19.58;81.91;99838.25;5088692;28;20027;-31
2022/07/07 03:21:29;;;;;;;25.30;20.10;;;;;;;19.64;80.71;99818.16;5088359;28;20026;-32
2022/07/07 03:23:54;;;;;;;30.45;20.92;;;;;;;19.70;81.67;99834.38;5088645;28;20031;-29
2022/07/07 03:26:20;;;;;;;22.65;20.10;;;;;;;19.73;80.66;99833.81;5088780;28;20028;-28
2022/07/07 03:28:45;;;;;;;25.17;20.83;;;;;;;19.81;80.81;99825.06;5088908;28;20032;-28
2022/07/07 03:31:11;;;;;;;28.75;21.15;;;;;;;19.96;80.76;99843.03;5070473;28;20028;-31
2022/07/07 03:33:36;;;;;;;24.20;19.27;;;;;;;19.99;80.16;99826.25;5087217;28;20032;-32
2022/07/07 03:36:02;;;;;;;25.70;19.75;;;;;;;19.96;81.10;99843.88;5087683;28;20020;-29
2022/07/07 03:38:27;;;;;;;24.45;19.52;;;;;;;19.85;81.36;99843.16;5087740;28;20028;-30
2022/07/07 03:40:53;;;;;;;25.08;20.98;;;;;;;19.67;82.29;99841.94;5069924;28;20052;-35
2022/07/07 03:43:20;;;;;;;25.77;21.27;;;;;;;19.75;81.97;99842.44;5088082;28;20385;-32
2022/07/07 03:45:45;;;;;;;23.27;19.27;;;;;;;19.91;79.49;99824.97;5069884;28;20039;-29
2022/07/07 03:48:11;;;;;;;20.65;16.75;;;;;;;20.03;77.72;99833.50;5088232;28;20039;-29
2022/07/07 03:50:37;;;;;;;19.50;15.55;;;;;;;19.89;78.85;99831.75;5088122;28;20032;-28
2022/07/07 03:53:02;;;;;;;22.88;18.48;;;;;;;19.85;80.24;99821.50;5087477;28;20032;-29
2022/07/07 03:55:28;;;;;;;22.65;16.40;;;;;;;19.87;80.50;99818.50;5069539;28;20028;-31
2022/07/07 03:57:54;;;;;;;17.25;15.43;;;;;;;20.29;78.69;99841.34;5087983;28;20479;-38
2022/07/07 04:00:19;;;;;;;19.05;15.75;;;;;;;20.28;78.36;99840.50;5088174;28;20020;-31
2022/07/07 04:02:45;;;;;;;18.08;16.17;;;;;;;20.32;79.73;99845.38;5088085;28;20043;-32
2022/07/07 04:05:10;;;;;;;18.33;15.75;;;;;;;20.44;78.12;99846.56;5086602;28;20024;-30
2022/07/07 04:07:36;;;;;;;20.15;16.30;;;;;;;20.38;77.99;99844.22;5087592;28;20028;-29
2022/07/07 04:10:02;;;;;;;19.70;17.02;;;;;;;20.46;77.71;99847.06;5088135;28;20028;-29
2022/07/07 04:12:28;;;;;;;22.38;17.20;;;;;;;20.54;77.93;99840.22;5069761;28;20038;-30
2022/07/07 04:14:54;;;;;;;21.40;17.52;;;;;;;20.52;78.32;99828.06;5087668;28;20028;-29
2022/07/07 04:17:19;;;;;;;25.60;18.50;;;;;;;20.55;78.14;99838.28;5087700;28;20111;-30
2022/07/07 04:19:45;;;;;;;27.40;21.83;;;;;;;20.56;78.43;99829.09;5087849;28;20024;-28
2022/07/07 04:22:10;;;;;;;24.85;20.13;;;;;;;20.52;79.23;99822.66;5087285;28;20032;-30
2022/07/07 04:24:36;;;;;;;19.55;16.30;;;;;;;20.74;78.56;99852.72;5087620;28;20020;-29
2022/07/07 04:27:02;;;;;;;20.17;17.80;;;;;;;20.70;79.41;99846.28;5087722;28;20069;-28
2022/07/07 04:29:28;;;;;;;23.40;18.38;;;;;;;20.73;79.19;99834.84;5085666;28;20028;-33
2022/07/07 04:31:53;;;;;;;28.17;20.45;;;;;;;20.77;79.97;99844.00;5087429;28;20028;-29
2022/07/07 04:34:22;;;;;;;21.48;17.90;;;;;;;20.80;79.96;99840.72;5086691;28;20438;-36
2022/07/07 04:36:47;;;;;;;18.92;15.77;;;;;;;20.79;77.86;99843.72;5087135;28;20034;-29
2022/07/07 04:39:13;;;;;;;17.10;15.30;;;;;;;20.74;79.15;99833.75;5087396;28;20107;-33
2022/07/07 04:41:38;;;;;;;16.45;14.65;;;;;;;20.83;78.43;99834.69;5086910;28;20608;-30
2022/07/07 04:44:05;;;;;;;16.25;14.55;;;;;;;20.93;78.69;99846.50;5087135;28;20034;-29
2022/07/07 04:46:31;;;;;;;17.42;15.57;;;;;;;20.82;79.37;99827.69;5087054;28;20035;-29
2022/07/07 04:48:56;;;;;;;19.73;15.68;;;;;;;20.89;79.40;99827.31;5087276;28;20032;-32
2022/07/07 04:51:23;;;;;;;18.25;16.05;;;;;;;20.96;79.80;99837.75;5086813;28;20051;-28
2022/07/07 04:53:49;;;;;;;18.10;16.17;;;;;;;21.23;79.16;99837.91;5086070;28;20039;-29
2022/07/07 04:56:14;;;;;;;15.25;13.65;;;;;;;21.22;77.89;99830.84;5087059;28;20028;-30
2022/07/07 04:58:41;;;;;;;19.23;14.65;;;;;;;21.32;78.80;99826.38;5087294;28;20396;-31
2022/07/07 05:01:08;;;;;;;15.45;13.70;;;;;;;21.59;76.92;99831.91;5085501;28;20059;-32
2022/07/07 05:03:33;;;;;;;17.90;14.07;;;;;;;21.71;77.06;99833.34;5087021;28;20039;-32
2022/07/07 05:05:59;;;;;;;15.40;12.52;;;;;;;21.54;77.44;99834.72;5087023;28;20112;-29
2022/07/07 05:08:24;;;;;;;14.98;13.20;;;;;;;21.74;77.16;99824.59;5086808;28;20034;-29
2022/07/07 05:10:50;;;;;;;13.50;11.13;;;;;;;21.85;75.24;99820.59;5086365;28;20043;-31
2022/07/07 05:13:15;;;;;;;16.05;11.95;;;;;;;21.89;75.57;99816.19;5086867;28;20024;-28
2022/07/07 05:15:41;;;;;;;12.40;11.10;;;;;;;22.16;75.11;99828.16;5086637;28;20028;-31
2022/07/07 05:18:06;;;;;;;15.45;12.10;;;;;;;22.38;75.44;99824.75;5087021;28;20028;-30
2022/07/07 05:20:32;;;;;;;14.13;11.25;;;;;;;22.39;73.23;99808.16;5086742;28;20476;-33
2022/07/07 05:22:57;;;;;;;11.18;9.68;;;;;;;22.61;72.38;99831.06;5086919;28;20672;-31
2022/07/07 05:25:23;;;;;;;10.77;8.40;;;;;;;22.66;72.50;99822.81;5086700;28;20111;-29
2022/07/07 05:27:48;;;;;;;11.50;8.15;;;;;;;22.78;69.84;99830.41;5085431;28;20035;-32
2022/07/07 05:30:14;;;;;;;9.52;7.07;;;;;;;22.77;68.22;99832.34;5086758;28;20085;-32
2022/07/07 05:32:40;;;;;;;10.93;7.72;;;;;;;22.82;69.94;99828.69;5086740;28;20476;-29
2022/07/07 05:35:06;;;;;;;9.65;7.78;;;;;;;22.91;68.93;99834.22;5086091;28;20031;-29
2022/07/07 05:37:31;;;;;;;9.70;7.78;;;;;;;22.80;68.08;99807.28;5068476;28;20463;-29
2022/07/07 05:39:57;;;;;;;8.70;7.15;;;;;;;23.14;66.51;99848.69;5086850;28;20123;-33
2022/07/07 05:42:23;;;;;;;12.40;7.75;;;;;;;23.06;68.01;99828.44;5086409;28;20139;-31
2022/07/07 05:44:48;;;;;;;10.70;7.03;;;;;;;23.15;66.28;99850.25;5087192;28;20016;-29
2022/07/07 05:47:13;;;;;;;10.40;6.75;;;;;;;23.26;67.81;99859.81;5086456;28;20028;-29
2022/07/07 05:49:39;;;;;;;8.00;6.40;;;;;;;23.37;65.29;99847.56;5067854;28;20035;-35
2022/07/07 05:52:05;;;;;;;8.93;6.47;;;;;;;23.42;64.81;99850.16;5086735;28;20031;-31
2022/07/07 05:54:30;;;;;;;6.53;5.60;;;;;;;23.63;65.15;99864.06;5068364;28;20510;-30
2022/07/07 05:56:56;;;;;;;7.63;6.30;;;;;;;23.70;65.18;99865.53;5088888;28;20032;-30
2022/07/07 05:59:21;;;;;;;9.45;7.10;;;;;;;23.75;66.77;99849.09;5071810;28;20024;-30
2022/07/07 06:01:47;;;;;;;6.82;5.93;;;;;;;23.85;65.17;99851.56;5089950;28;20059;-29
2022/07/07 06:04:12;;;;;;;7.35;6.05;;;;;;;23.96;64.37;99874.69;5089981;28;20028;-29
2022/07/07 06:06:38;;;;;;;7.38;6.28;;;;;;;23.86;65.21;99855.88;5089884;28;20042;-31
2022/07/07 06:09:03;;;;;;;10.40;7.10;;;;;;;24.18;63.44;99867.56;5089914;28;20028;-31
2022/07/07 06:11:29;;;;;;;12.57;8.13;;;;;;;24.34;64.04;99859.78;5089157;28;20036;-34
2022/07/07 06:13:54;;;;;;;8.52;6.88;;;;;;;24.53;62.82;99876.69;5089512;28;20407;-29
2022/07/07 06:16:38;;;;;;;8.52;6.40;;;;;;;24.36;63.70;99858.34;5089890;28;20039;-29
2022/07/07 06:19:13;;;;;;;8.68;5.30;;;;;;;24.58;61.12;99895.63;5088571;28;20843;-29
2022/07/07 06:21:41;;;;;;;8.52;6.30;;;;;;;24.42;61.79;99878.88;5089446;28;20038;-31
2022/07/07 06:24:07;;;;;;;8.05;5.63;;;;;;;24.46;62.03;99877.13;5071059;28;20124;-35
2022/07/07 06:26:32;;;;;;;7.50;6.60;;;;;;;24.71;61.96;99880.25;5071245;28;20036;-28
2022/07/07 06:28:58;;;;;;;8.20;6.72;;;;;;;25.03;61.85;99889.94;5089675;28;20073;-30
2022/07/07 06:31:24;;;;;;;7.22;5.43;;;;;;;25.06;59.61;99874.84;5089046;28;20426;-31
2022/07/07 06:33:49;;;;;;;7.55;5.75;;;;;;;25.31;59.44;99886.09;5089485;28;20012;-29
2022/07/07 06:36:15;;;;;;;6.30;4.75;;;;;;;25.03;58.54;99875.50;5089482;28;20035;-29
2022/07/07 06:38:40;;;;;;;7.82;5.90;;;;;;;24.99;58.16;99888.97;5087599;28;20028;-32
2022/07/07 06:41:06;;;;;;;8.98;5.70;;;;;;;25.06;59.05;99883.03;5088910;28;20105;-32
2022/07/07 06:43:31;;;;;;;7.18;5.70;;;;;;;25.36;59.37;99878.56;5087282;28;20028;-30
2022/07/07 06:45:57;;;;;;;9.73;5.88;;;;;;;25.45;59.16;99875.81;5088679;28;20115;-29
2022/07/07 06:48:23;;;;;;;7.75;5.60;;;;;;;25.49;58.47;99867.78;5088971;28;20024;-29
2022/07/07 06:50:49;;;;;;;7.20;5.30;;;;;;;25.56;57.89;99885.28;5070265;28;20727;-34
2022/07/07 06:53:15;;;;;;;6.22;5.20;;;;;;;25.61;56.29;99884.31;5072040;28;20028;-29
2022/07/07 06:55:41;;;;;;;7.45;5.45;;;;;;;25.68;55.50;99876.41;5070134;28;20039;-31
2022/07/07 06:58:07;;;;;;;7.50;5.63;;;;;;;25.54;55.99;99876.63;5088625;28;20073;-31
2022/07/07 07:00:32;;;;;;;7.97;5.47;;;;;;;25.66;56.62;99879.47;5088540;28;20555;-29
2022/07/07 07:02:58;;;;;;;7.15;5.47;;;;;;;26.10;56.97;99878.56;5070444;28;20565;-31
2022/07/07 07:05:24;;;;;;;8.88;5.40;;;;;;;26.31;54.83;99884.91;5088602;28;20024;-31
2022/07/07 07:07:50;;;;;;;7.80;5.75;;;;;;;26.40;54.94;99850.13;5088394;28;20047;-30
2022/07/07 07:10:15;;;;;;;7.72;5.82;;;;;;;26.51;54.53;99863.41;5088494;28;20066;-29
2022/07/07 07:12:41;;;;;;;6.18;4.93;;;;;;;26.43;54.14;99865.84;5088357;28;20077;-31
2022/07/07 07:15:07;;;;;;;9.48;5.10;;;;;;;26.40;53.40;99877.47;5088280;28;20067;-30
2022/07/07 07:17:33;;;;;;;5.70;4.88;;;;;;;26.39;52.79;99873.13;5088253;28;20036;-29
2022/07/07 07:19:58;;;;;;;6.28;4.60;;;;;;;26.63;53.09;99872.53;5088462;28;20059;-29
2022/07/07 07:22:24;;;;;;;7.10;5.05;;;;;;;26.67;53.07;99867.22;5088506;28;20020;-30
2022/07/07 07:24:50;;;;;;;8.38;5.57;;;;;;;26.73;53.22;99865.88;5070055;28;20040;-33
2022/07/07 07:27:16;;;;;;;7.30;5.03;;;;;;;26.88;53.67;99871.91;5070063;28;20086;-32
2022/07/07 07:29:42;;;;;;;5.82;4.75;;;;;;;26.69;50.80;99864.94;5087097;28;20035;-31
2022/07/07 07:32:07;;;;;;;5.43;4.80;;;;;;;26.81;52.45;99861.50;5088412;28;20024;-31
2022/07/07 07:34:34;;;;;;;6.55;4.57;;;;;;;26.96;52.92;99857.34;5088138;28;20472;-29
2022/07/07 07:37:00;;;;;;;7.45;4.80;;;;;;;27.03;49.51;99857.59;5069958;28;20039;-30
2022/07/07 07:39:25;;;;;;;9.25;4.88;;;;;;;27.12;49.62;99861.06;5069742;28;20036;-31
2022/07/07 07:41:50;;;;;;;5.57;4.60;;;;;;;27.10;49.85;99849.66;5088534;28;20120;-29
2022/07/07 07:45:09;;;;;;;8.05;4.63;;;;;;;27.31;49.39;99859.81;5086376;28;20020;-32
2022/07/07 07:47:01;;;;;;;7.25;4.57;;;;;;;27.20;49.72;99876.63;5088014;28;20032;-29
2022/07/07 07:49:27;;;;;;;7.25;4.53;;;;;;;27.38;49.31;99868.28;5087770;28;20027;-37
2022/07/07 07:51:52;;;;;;;6.35;4.60;;;;;;;27.57;47.05;99862.31;5088044;28;20059;-29
2022/07/07 07:54:18;;;;;;;7.10;4.60;;;;;;;27.91;48.07;99871.28;5087765;28;20031;-30
2022/07/07 07:56:43;;;;;;;7.20;4.75;;;;;;;28.12;47.87;99876.72;5085938;28;20055;-32
2022/07/07 07:59:08;;;;;;;6.38;4.57;;;;;;;27.85;47.62;99859.75;5088136;28;20413;-29
2022/07/07 08:01:34;;;;;;;7.35;4.53;;;;;;;28.03;47.65;99866.66;5087971;28;20032;-36
2022/07/07 08:03:59;;;;;;;6.53;4.75;;;;;;;28.15;45.76;99860.34;5087843;28;20028;-29
2022/07/07 08:06:25;;;;;;;8.65;4.80;;;;;;;28.15;47.41;99881.50;5087840;28;20141;-30
2022/07/07 08:08:50;;;;;;;7.15;4.47;;;;;;;28.17;46.21;99865.50;5087666;28;20052;-29
2022/07/07 08:11:15;;;;;;;5.88;4.40;;;;;;;28.47;45.97;99862.53;5086003;28;20028;-34
2022/07/07 08:13:41;;;;;;;4.75;4.13;;;;;;;27.90;46.00;99859.53;5087319;28;20028;-34
2022/07/07 08:16:07;;;;;;;5.75;4.05;;;;;;;28.10;47.11;99851.56;5087762;28;20476;-29
2022/07/07 08:18:32;;;;;;;5.90;4.55;;;;;;;28.39;44.87;99862.28;5068762;28;20020;-32
2022/07/07 08:20:58;;;;;;;7.43;4.47;;;;;;;28.23;45.71;99861.38;5087613;28;20028;-29
2022/07/07 08:23:23;;;;;;;6.13;4.18;;;;;;;28.42;44.92;99849.84;5052377;28;20795;-30
2022/07/07 08:25:49;;;;;;;5.65;4.13;;;;;;;28.51;44.96;99849.75;5087286;28;20085;-29
2022/07/07 08:28:14;;;;;;;5.00;3.92;;;;;;;28.70;44.13;99851.88;5087275;28;20403;-29
2022/07/07 08:30:40;;;;;;;6.50;4.43;;;;;;;28.74;44.74;99845.34;5087370;28;20031;-29
2022/07/07 08:33:06;;;;;;;6.53;4.20;;;;;;;28.70;43.12;99863.66;5087130;28;20065;-31
2022/07/07 08:35:32;;;;;;;5.73;4.40;;;;;;;28.87;43.34;99864.53;5068892;28;20423;-29
2022/07/07 08:37:57;;;;;;;6.13;4.18;;;;;;;29.07;43.70;99866.31;5087127;28;20265;-30
2022/07/07 08:40:23;;;;;;;5.68;4.50;;;;;;;29.12;44.19;99868.06;5086887;28;20090;-29
2022/07/07 08:42:49;;;;;;;6.32;4.53;;;;;;;29.00;43.19;99846.91;5087224;28;20032;-31
2022/07/07 08:45:14;;;;;;;6.40;4.25;;;;;;;29.09;42.99;99853.03;5087105;28;20035;-29
2022/07/07 08:47:40;;;;;;;5.10;4.00;;;;;;;29.42;43.33;99863.00;5086720;28;20031;-35
2022/07/07 08:50:06;;;;;;;4.95;3.95;;;;;;;29.48;40.62;99866.28;5085790;28;20093;-31
2022/07/07 08:52:31;;;;;;;5.40;4.20;;;;;;;29.38;40.92;99857.41;5087264;28;20444;-32
2022/07/07 08:55:00;;;;;;;6.82;4.30;;;;;;;29.60;41.92;99860.72;5086999;28;20032;-31
2022/07/07 08:57:25;;;;;;;5.38;4.50;;;;;;;29.73;40.14;99853.22;5068716;28;20549;-31
2022/07/07 08:59:56;;;;;;;6.28;4.20;;;;;;;29.51;40.96;99869.13;5085759;28;20036;-35
2022/07/07 09:02:22;;;;;;;5.65;4.55;;;;;;;29.36;41.26;99864.38;5087251;28;20028;-29
2022/07/07 09:04:47;;;;;;;5.95;4.40;;;;;;;29.61;40.01;99838.41;5085669;28;20407;-30
2022/07/07 09:07:14;;;;;;;6.18;4.35;;;;;;;30.23;41.23;99858.00;5087205;28;20028;-34
2022/07/07 09:09:48;;;;;;;5.93;4.68;;;;;;;30.33;41.20;99856.72;5068415;28;20405;-30
2022/07/07 09:12:16;;;;;;;5.20;4.30;;;;;;;30.26;38.85;99856.53;5085589;28;20036;-29
2022/07/07 09:14:43;;;;;;;7.05;4.35;;;;;;;30.46;40.00;99865.63;5068936;28;20035;-32
2022/07/07 09:17:31;;;;;;;6.82;4.60;;;;;;;30.55;38.77;99859.97;5086914;28;20024;-32
2022/07/07 09:20:04;;;;;;;6.47;4.03;;;;;;;30.29;39.03;99858.53;5085360;28;20044;-29
2022/07/07 09:22:45;;;;;;;5.63;4.68;;;;;;;30.49;38.96;99847.66;5085439;28;20034;-29
2022/07/07 09:25:11;;;;;;;5.60;4.32;;;;;;;30.52;36.24;99842.19;5086958;28;20108;-30
2022/07/07 09:27:56;;;;;;;4.53;3.95;;;;;;;30.59;35.86;99849.84;5068277;28;20114;-31
2022/07/07 09:30:35;;;;;;;7.63;4.18;;;;;;;30.51;38.16;99835.13;5085202;28;20592;-29
2022/07/07 09:33:04;;;;;;;5.75;3.92;;;;;;;31.00;37.07;99820.84;5090924;28;20020;-33
2022/07/07 09:38:34;;;;;;;5.38;4.05;;;;;;;31.04;36.74;99829.19;5091342;28;20031;-30
2022/07/07 09:41:05;;;;;;;4.75;3.92;;;;;;;30.76;36.54;99824.63;5085425;28;20161;-30
2022/07/07 09:43:33;;;;;;;5.63;4.10;;;;;;;30.91;36.66;99813.94;5085690;28;20048;-29
2022/07/07 09:46:14;;;;;;;6.03;4.38;;;;;;;31.46;36.68;99833.91;5085746;28;20455;-31
2022/07/07 09:48:42;;;;;;;5.00;3.75;;;;;;;31.19;33.30;99833.78;5068605;28;20032;-32
2022/07/07 09:51:35;;;;;;;5.65;3.80;;;;;;;31.28;35.98;99824.50;5068314;28;20028;-36
2022/07/07 09:54:14;;;;;;;5.88;3.80;;;;;;;31.23;35.46;99837.41;5069318;28;20032;-29
2022/07/07 09:56:42;;;;;;;5.50;3.90;;;;;;;31.24;35.63;99827.19;5069444;28;20029;-31
2022/07/07 09:59:13;;;;;;;5.95;3.80;;;;;;;31.57;35.40;99815.63;5085463;28;20037;-32
2022/07/07 10:01:41;;;;;;;5.53;4.47;;;;;;;31.66;38.66;99837.44;5068216;28;20032;-30
2022/07/07 10:04:11;;;;;;;5.50;3.83;;;;;;;31.33;33.47;99835.22;5085508;28;20028;-35
2022/07/07 10:06:38;;;;;;;5.57;3.95;;;;;;;31.18;34.48;99826.69;5069882;28;20036;-30
2022/07/07 10:09:26;;;;;;;5.47;3.72;;;;;;;31.32;33.41;99825.34;5085146;28;20087;-36
2022/07/07 10:11:54;;;;;;;6.32;3.78;;;;;;;31.47;34.18;99807.97;5069162;28;20036;-32
2022/07/07 10:14:27;;;;;;;5.10;4.00;;;;;;;31.78;33.28;99814.41;5068275;28;20040;-31
2022/07/07 10:16:54;;;;;;;5.57;3.70;;;;;;;31.71;33.61;99812.34;5068362;28;20036;-34
2022/07/07 10:19:25;;;;;;;5.73;3.60;;;;;;;31.27;33.77;99814.66;5084654;28;20056;-30
2022/07/07 10:21:52;;;;;;;5.90;4.13;;;;;;;31.48;34.22;99815.06;5068263;28;20537;-30
2022/07/07 10:24:21;;;;;;;6.82;4.43;;;;;;;32.10;33.31;99811.38;5084878;28;20052;-29
2022/07/07 10:26:56;;;;;;;5.53;3.92;;;;;;;32.30;32.21;99821.13;5084673;28;20551;-31
2022/07/07 10:29:48;;;;;;;5.80;3.72;;;;;;;32.55;31.60;99809.69;5084743;28;20038;-30
2022/07/07 10:32:28;;;;;;;5.47;3.55;;;;;;;32.11;31.20;99801.94;5084869;28;20036;-32
2022/07/07 10:34:56;;;;;;;5.70;4.07;;;;;;;31.38;33.89;99801.84;5069149;28;20496;-31
2022/07/07 10:37:23;;;;;;;5.80;4.20;;;;;;;30.97;34.92;99799.53;5069339;28;20036;-29
2022/07/07 10:39:51;;;;;;;5.35;4.20;;;;;;;30.89;34.71;99791.50;5067877;28;20052;-31
2022/07/07 10:42:17;;;;;;;4.63;3.58;;;;;;;31.07;32.73;99789.88;5083942;28;20083;-35
2022/07/07 10:44:49;;;;;;;5.53;4.25;;;;;;;31.52;35.67;99793.88;5069250;28;20056;-29
2022/07/07 10:47:14;;;;;;;4.88;3.80;;;;;;;31.64;32.83;99801.16;5069070;28;20067;-32
2022/07/07 10:49:46;;;;;;;5.22;3.80;;;;;;;31.60;33.39;99794.81;5068623;28;20028;-36
2022/07/07 10:52:17;;;;;;;5.32;4.03;;;;;;;31.63;34.53;99799.59;5067801;28;20047;-32
2022/07/07 10:54:45;;;;;;;4.93;3.75;;;;;;;31.75;33.51;99788.38;5084540;28;20119;-30
2022/07/07 10:57:13;;;;;;;5.43;3.65;;;;;;;31.82;33.21;99801.47;5067413;28;20043;-30
2022/07/07 11:00:01;;;;;;;5.43;3.90;;;;;;;31.66;33.54;99784.28;5067021;28;20060;-31
2022/07/07 11:02:32;;;;;;;6.38;4.15;;;;;;;32.01;33.80;99792.34;5084151;28;20514;-34
2022/07/07 11:05:00;;;;;;;5.00;3.95;;;;;;;32.30;32.05;99771.47;5069243;28;20107;-29
2022/07/07 11:07:26;;;;;;;4.55;4.05;;;;;;;32.00;33.63;99786.03;5083954;28;20067;-29
2022/07/07 11:10:04;;;;;;;6.23;4.57;;;;;;;32.47;33.01;99791.41;5083950;28;20608;-35
2022/07/07 11:12:46;;;;;;;7.63;3.70;;;;;;;32.61;31.71;99797.13;5068418;28;20101;-33
2022/07/07 11:15:15;;;;;;;6.20;3.85;;;;;;;32.88;33.05;99788.81;5084051;28;20143;-32
2022/07/07 11:17:44;;;;;;;5.45;4.10;;;;;;;32.12;31.91;99784.22;5068338;28;20041;-32
2022/07/07 11:20:18;;;;;;;6.90;3.88;;;;;;;32.00;32.96;99780.50;5068702;28;20054;-34
2022/07/07 11:22:45;;;;;;;5.28;4.00;;;;;;;31.89;33.65;99781.47;5066871;28;20056;-29
2022/07/07 11:25:14;;;;;;;5.20;4.20;;;;;;;31.97;33.03;99789.50;5083832;28;20032;-31
2022/07/07 11:27:39;;;;;;;6.40;4.20;;;;;;;32.13;31.62;99772.03;5066743;28;20028;-29
2022/07/07 11:30:06;;;;;;;5.63;3.83;;;;;;;31.88;34.85;99788.97;5068363;28;20090;-35